createdAt,value
2024-02-24T00:00:20.791Z,78.32
2024-02-24T00:00:53.196Z,78.14
2024-02-24T00:01:28.049Z,78.29
2024-02-24T00:02:00.323Z,78.21
2024-02-24T00:02:35.353Z,78.13
2024-02-24T00:03:08.270Z,78.32
2024-02-24T00:03:43.216Z,78.35
2024-02-24T00:04:15.673Z,78.19
2024-02-24T00:04:48.098Z,78.13
2024-02-24T00:05:20.627Z,77.96
2024-02-24T00:05:55.461Z,78.46
2024-02-24T00:06:27.862Z,78.22
2024-02-24T00:07:00.114Z,78.35
2024-02-24T00:07:32.428Z,77.98
2024-02-24T00:08:08.825Z,77.93
2024-02-24T00:08:41.276Z,78.10
2024-02-24T00:09:13.535Z,77.98
2024-02-24T00:09:45.872Z,78.23
2024-02-24T00:10:20.733Z,77.90
2024-02-24T00:10:53.029Z,78.20
2024-02-24T00:11:25.599Z,78.28
2024-02-24T00:11:58.047Z,77.82
2024-02-24T00:12:32.915Z,78.05
2024-02-24T00:13:05.335Z,77.98
2024-02-24T00:13:37.909Z,77.86
2024-02-24T00:14:10.373Z,78.09
2024-02-24T00:14:45.293Z,77.70
2024-02-24T00:15:17.795Z,78.01
2024-02-24T00:15:50.023Z,77.85
2024-02-24T00:16:24.798Z,78.06
2024-02-24T00:16:57.145Z,77.77
2024-02-24T00:17:29.820Z,78.13
2024-02-24T00:18:05.982Z,77.90
2024-02-24T00:18:41.346Z,77.82
2024-02-24T00:19:13.701Z,77.63
2024-02-24T00:19:48.328Z,77.55
2024-02-24T00:20:20.748Z,77.39
2024-02-24T00:20:52.930Z,77.56
2024-02-24T00:21:28.408Z,77.59
2024-02-24T00:22:00.867Z,77.49
2024-02-24T00:22:33.255Z,77.29
2024-02-24T00:23:05.830Z,77.58
2024-02-24T00:23:40.681Z,77.58
2024-02-24T00:24:13.083Z,77.39
2024-02-24T00:24:45.336Z,77.64
2024-02-24T00:25:17.549Z,77.78
2024-02-24T00:25:52.369Z,77.37
2024-02-24T00:26:24.669Z,77.77
2024-02-24T00:26:56.900Z,77.72
2024-02-24T00:27:29.276Z,77.92
2024-02-24T00:28:04.165Z,77.88
2024-02-24T00:28:36.604Z,77.72
2024-02-24T00:29:08.891Z,77.64
2024-02-24T00:29:43.873Z,77.64
2024-02-24T00:30:16.846Z,77.86
2024-02-24T00:30:49.077Z,77.75
2024-02-24T00:31:21.366Z,77.65
2024-02-24T00:31:56.333Z,77.71
2024-02-24T00:32:28.778Z,77.57
2024-02-24T00:33:01.357Z,77.42
2024-02-24T00:33:40.754Z,77.53
2024-02-24T00:34:13.989Z,77.63
2024-02-24T00:34:46.339Z,77.26
2024-02-24T00:35:20.184Z,77.16
2024-02-24T00:35:55.055Z,77.12
2024-02-24T00:36:27.358Z,77.38
2024-02-24T00:36:59.769Z,77.29
2024-02-24T00:37:32.105Z,77.52
2024-02-24T00:38:04.517Z,77.14
2024-02-24T00:38:39.996Z,76.93
2024-02-24T00:39:14.389Z,77.03
2024-02-24T00:39:46.821Z,77.17
2024-02-24T00:40:19.125Z,77.47
2024-02-24T00:40:56.231Z,77.09
2024-02-24T00:41:28.456Z,77.38
2024-02-24T00:42:00.877Z,77.13
2024-02-24T00:42:33.261Z,77.14
2024-02-24T00:43:05.687Z,77.57
2024-02-24T00:43:42.936Z,77.22
2024-02-24T00:44:17.753Z,77.34
2024-02-24T00:44:50.039Z,77.36
2024-02-24T00:45:22.557Z,77.07
2024-02-24T00:45:57.390Z,76.94
2024-02-24T00:46:29.595Z,77.24
2024-02-24T00:47:01.818Z,77.55
2024-02-24T00:47:34.231Z,77.47
2024-02-24T00:48:09.981Z,77.24
2024-02-24T00:48:45.070Z,77.13
2024-02-24T00:49:17.420Z,77.00
2024-02-24T00:49:49.895Z,77.16
2024-02-24T00:50:30.448Z,76.87
2024-02-24T00:51:03.047Z,77.16
2024-02-24T00:51:36.961Z,77.12
2024-02-24T00:52:09.204Z,77.06
2024-02-24T00:52:44.308Z,77.33
2024-02-24T00:53:16.712Z,77.03
2024-02-24T00:53:49.892Z,76.75
2024-02-24T00:54:24.733Z,77.00
2024-02-24T00:54:57.014Z,77.04
2024-02-24T00:55:29.373Z,76.83
2024-02-24T00:56:01.548Z,76.72
2024-02-24T00:56:36.528Z,77.05
2024-02-24T00:57:08.835Z,77.03
2024-02-24T00:57:41.134Z,76.75
2024-02-24T00:58:13.729Z,76.39
2024-02-24T00:58:51.627Z,76.51
2024-02-24T00:59:24.817Z,76.47
2024-02-24T00:59:57.200Z,76.19
2024-02-24T01:00:29.746Z,76.72
2024-02-24T01:01:04.615Z,76.69
2024-02-24T01:01:36.882Z,76.31
2024-02-24T01:02:09.938Z,76.71
2024-02-24T01:02:42.361Z,76.82
2024-02-24T01:03:17.375Z,76.77
2024-02-24T01:03:52.366Z,76.85
2024-02-24T01:04:26.914Z,77.00
2024-02-24T01:04:59.930Z,76.66
2024-02-24T01:05:34.795Z,76.33
2024-02-24T01:06:07.139Z,76.26
2024-02-24T01:06:39.324Z,76.48
2024-02-24T01:07:13.934Z,76.26
2024-02-24T01:07:49.068Z,76.20
2024-02-24T01:08:21.883Z,76.12
2024-02-24T01:08:54.287Z,75.92
2024-02-24T01:09:29.335Z,76.11
2024-02-24T01:10:01.723Z,76.08
2024-02-24T01:10:34.091Z,75.80
2024-02-24T01:11:07.869Z,76.05
2024-02-24T01:11:43.804Z,76.04
2024-02-24T01:12:16.255Z,75.80
2024-02-24T01:12:48.774Z,76.11
2024-02-24T01:13:21.534Z,76.15
2024-02-24T01:13:57.575Z,75.96
2024-02-24T01:14:30.366Z,76.38
2024-02-24T01:15:02.972Z,76.15
2024-02-24T01:15:35.632Z,76.07
2024-02-24T01:16:10.879Z,76.25
2024-02-24T01:16:45.758Z,75.93
2024-02-24T01:17:18.165Z,76.04
2024-02-24T01:17:52.252Z,76.23
2024-02-24T01:18:29.049Z,76.15
2024-02-24T01:19:07.255Z,76.22
2024-02-24T01:19:39.697Z,76.54
2024-02-24T01:20:14.933Z,76.13
2024-02-24T01:20:49.897Z,76.14
2024-02-24T01:21:22.724Z,76.20
2024-02-24T01:22:00.015Z,76.44
2024-02-24T01:22:32.399Z,76.10
2024-02-24T01:23:05.019Z,76.25
2024-02-24T01:23:37.360Z,76.46
2024-02-24T01:24:12.191Z,76.18
2024-02-24T01:24:44.754Z,76.17
2024-02-24T01:25:17.320Z,76.51
2024-02-24T01:25:49.492Z,76.41
2024-02-24T01:26:24.276Z,76.21
2024-02-24T01:26:56.585Z,76.04
2024-02-24T01:27:28.785Z,76.52
2024-02-24T01:28:01.498Z,76.11
2024-02-24T01:28:38.122Z,75.84
2024-02-24T01:29:10.463Z,75.73
2024-02-24T01:29:42.787Z,76.10
2024-02-24T01:30:15.367Z,75.69
2024-02-24T01:30:51.836Z,76.06
2024-02-24T01:31:24.055Z,75.99
2024-02-24T01:32:00.783Z,75.84
2024-02-24T01:32:35.801Z,75.72
2024-02-24T01:33:11.284Z,75.98
2024-02-24T01:33:43.718Z,75.82
2024-02-24T01:34:18.714Z,76.01
2024-02-24T01:34:53.492Z,75.79
2024-02-24T01:35:25.768Z,75.64
2024-02-24T01:35:58.157Z,76.06
2024-02-24T01:36:30.479Z,75.87
2024-02-24T01:37:05.351Z,75.82
2024-02-24T01:37:38.927Z,75.68
2024-02-24T01:38:11.891Z,76.15
2024-02-24T01:38:44.258Z,75.88
2024-02-24T01:39:19.176Z,75.82
2024-02-24T01:39:51.512Z,75.68
2024-02-24T01:40:23.893Z,75.57
2024-02-24T01:40:58.743Z,75.58
2024-02-24T01:41:31.086Z,75.94
2024-02-24T01:42:03.556Z,75.72
2024-02-24T01:42:35.832Z,75.70
2024-02-24T01:43:26.345Z,75.54
2024-02-24T01:43:58.849Z,75.51
2024-02-24T01:44:31.349Z,75.48
2024-02-24T01:45:06.384Z,75.42
2024-02-24T01:45:38.696Z,75.49
2024-02-24T01:46:14.783Z,75.19
2024-02-24T01:46:47.517Z,75.83
2024-02-24T01:47:24.906Z,75.65
2024-02-24T01:47:58.500Z,75.25
2024-02-24T01:48:32.181Z,75.69
2024-02-24T01:49:04.729Z,75.59
2024-02-24T01:49:44.080Z,75.79
2024-02-24T01:50:18.069Z,75.68
2024-02-24T01:50:51.345Z,75.56
2024-02-24T01:51:23.666Z,75.51
2024-02-24T01:51:58.519Z,75.84
2024-02-24T01:52:31.287Z,75.92
2024-02-24T01:53:04.324Z,75.49
2024-02-24T01:53:38.432Z,75.49
2024-02-24T01:54:11.374Z,75.87
2024-02-24T01:54:46.494Z,75.90
2024-02-24T01:55:20.310Z,75.42
2024-02-24T01:55:53.132Z,75.48
2024-02-24T01:56:26.424Z,75.86
2024-02-24T01:57:02.653Z,75.43
2024-02-24T01:57:42.073Z,75.47
2024-02-24T01:58:15.868Z,75.47
2024-02-24T01:58:50.758Z,75.50
2024-02-24T01:59:23.293Z,75.91
2024-02-24T01:59:56.359Z,75.88
2024-02-24T02:00:29.059Z,75.69
2024-02-24T02:01:04.449Z,75.62
2024-02-24T02:01:37.874Z,75.45
2024-02-24T02:02:10.307Z,75.59
2024-02-24T02:02:42.663Z,75.69
2024-02-24T02:03:17.815Z,75.96
2024-02-24T02:03:51.601Z,75.83
2024-02-24T02:04:23.974Z,75.53
2024-02-24T02:04:58.846Z,75.46
2024-02-24T02:05:35.964Z,76.05
2024-02-24T02:06:08.421Z,75.81
2024-02-24T02:06:40.868Z,76.22
2024-02-24T02:07:13.312Z,76.09
2024-02-24T02:07:48.139Z,75.82
2024-02-24T02:08:20.398Z,76.22
2024-02-24T02:08:52.718Z,75.94
2024-02-24T02:09:27.566Z,75.50
2024-02-24T02:10:01.231Z,75.71
2024-02-24T02:10:44.883Z,75.50
2024-02-24T02:11:19.880Z,75.99
2024-02-24T02:12:02.722Z,75.70
2024-02-24T02:12:37.465Z,76.05
2024-02-24T02:13:09.787Z,76.13
2024-02-24T02:13:44.673Z,75.84
2024-02-24T02:14:16.976Z,75.74
2024-02-24T02:14:51.039Z,75.76
2024-02-24T02:15:23.384Z,75.30
2024-02-24T02:16:00.678Z,75.46
2024-02-24T02:16:33.090Z,75.86
2024-02-24T02:17:05.388Z,75.85
2024-02-24T02:17:39.753Z,75.55
2024-02-24T02:18:14.833Z,75.60
2024-02-24T02:18:47.205Z,75.70
2024-02-24T02:19:19.575Z,75.51
2024-02-24T02:19:51.890Z,75.74
2024-02-24T02:20:29.379Z,75.59
2024-02-24T02:21:02.014Z,75.74
2024-02-24T02:21:37.113Z,75.65
2024-02-24T02:22:13.292Z,76.04
2024-02-24T02:22:48.082Z,76.23
2024-02-24T02:23:20.729Z,76.10
2024-02-24T02:23:58.488Z,75.93
2024-02-24T02:24:30.829Z,75.69
2024-02-24T02:25:03.134Z,76.08
2024-02-24T02:25:35.381Z,76.21
2024-02-24T02:26:10.293Z,76.08
2024-02-24T02:26:42.588Z,75.71
2024-02-24T02:27:14.936Z,75.94
2024-02-24T02:27:47.149Z,76.04
2024-02-24T02:28:21.980Z,75.83
2024-02-24T02:28:54.236Z,75.65
2024-02-24T02:29:26.506Z,75.52
2024-02-24T02:30:01.454Z,75.70
2024-02-24T02:30:36.290Z,75.64
2024-02-24T02:31:08.540Z,75.35
2024-02-24T02:31:40.796Z,75.50
2024-02-24T02:32:13.262Z,75.74
2024-02-24T02:32:48.401Z,75.55
2024-02-24T02:33:21.045Z,75.79
2024-02-24T02:33:53.501Z,75.65
2024-02-24T02:34:31.769Z,75.53
2024-02-24T02:35:06.452Z,75.74
2024-02-24T02:35:38.869Z,75.99
2024-02-24T02:36:13.967Z,76.05
2024-02-24T02:36:46.223Z,75.64
2024-02-24T02:37:18.479Z,75.93
2024-02-24T02:37:53.459Z,75.68
2024-02-24T02:38:28.317Z,75.43
2024-02-24T02:39:00.590Z,75.73
2024-02-24T02:39:32.964Z,75.69
2024-02-24T02:40:06.288Z,75.77
2024-02-24T02:40:41.243Z,75.51
2024-02-24T02:41:13.563Z,75.64
2024-02-24T02:41:47.226Z,75.67
2024-02-24T02:42:19.564Z,75.46
2024-02-24T02:42:54.382Z,75.37
2024-02-24T02:43:26.750Z,75.87
2024-02-24T02:43:58.970Z,75.88
2024-02-24T02:44:31.882Z,75.72
2024-02-24T02:45:07.417Z,75.50
2024-02-24T02:45:39.650Z,75.74
2024-02-24T02:46:12.003Z,75.46
2024-02-24T02:46:47.040Z,75.44
2024-02-24T02:47:24.119Z,75.77
2024-02-24T02:47:56.940Z,75.74
2024-02-24T02:48:29.329Z,75.80
2024-02-24T02:49:04.159Z,75.43
2024-02-24T02:49:41.350Z,75.67
2024-02-24T02:50:13.714Z,75.32
2024-02-24T02:50:45.966Z,75.34
2024-02-24T02:51:18.166Z,75.42
2024-02-24T02:51:53.026Z,75.47
2024-02-24T02:52:25.313Z,75.41
2024-02-24T02:53:00.108Z,75.04
2024-02-24T02:53:34.965Z,75.38
2024-02-24T02:54:07.304Z,75.10
2024-02-24T02:54:39.640Z,75.35
2024-02-24T02:55:11.863Z,75.13
2024-02-24T02:55:46.693Z,74.87
2024-02-24T02:56:23.156Z,75.34
2024-02-24T02:56:55.401Z,75.29
2024-02-24T02:57:27.874Z,75.50
2024-02-24T02:58:02.690Z,75.81
2024-02-24T02:58:35.486Z,75.55
2024-02-24T02:59:07.786Z,75.23
2024-02-24T02:59:40.120Z,75.55
2024-02-24T03:00:13.742Z,75.35
2024-02-24T03:00:48.688Z,74.91
2024-02-24T03:01:20.985Z,75.40
2024-02-24T03:01:53.359Z,75.13
2024-02-24T03:02:25.721Z,75.35
2024-02-24T03:03:00.655Z,75.33
2024-02-24T03:03:33.330Z,74.97
2024-02-24T03:04:05.701Z,75.08
2024-02-24T03:04:38.345Z,74.98
2024-02-24T03:05:15.021Z,74.74
2024-02-24T03:05:47.589Z,75.11
2024-02-24T03:06:20.040Z,74.92
2024-02-24T03:06:54.898Z,75.20
2024-02-24T03:07:27.112Z,74.82
2024-02-24T03:08:01.903Z,75.18
2024-02-24T03:08:35.040Z,75.13
2024-02-24T03:09:09.881Z,75.03
2024-02-24T03:09:47.222Z,74.95
2024-02-24T03:10:19.848Z,74.93
2024-02-24T03:10:52.141Z,74.65
2024-02-24T03:11:27.489Z,74.75
2024-02-24T03:12:00.041Z,74.81
2024-02-24T03:12:33.120Z,74.78
2024-02-24T03:13:07.954Z,75.03
2024-02-24T03:13:40.426Z,74.82
2024-02-24T03:14:14.827Z,74.97
2024-02-24T03:14:47.417Z,74.93
2024-02-24T03:15:22.317Z,75.26
2024-02-24T03:15:54.694Z,75.25
2024-02-24T03:16:26.971Z,75.36
2024-02-24T03:17:02.130Z,75.31
2024-02-24T03:17:37.104Z,75.08
2024-02-24T03:18:09.505Z,75.19
2024-02-24T03:18:43.496Z,74.77
2024-02-24T03:19:15.781Z,75.18
2024-02-24T03:19:50.647Z,74.80
2024-02-24T03:20:22.872Z,75.02
2024-02-24T03:20:55.180Z,74.60
2024-02-24T03:21:30.906Z,74.53
2024-02-24T03:22:05.806Z,74.50
2024-02-24T03:22:39.714Z,74.37
2024-02-24T03:23:15.386Z,74.74
2024-02-24T03:23:47.730Z,74.61
2024-02-24T03:24:22.828Z,74.77
2024-02-24T03:24:55.076Z,74.92
2024-02-24T03:25:27.356Z,75.02
2024-02-24T03:25:59.508Z,74.98
2024-02-24T03:26:34.319Z,74.96
2024-02-24T03:27:06.542Z,75.05
2024-02-24T03:27:39.342Z,74.89
2024-02-24T03:28:11.700Z,74.75
2024-02-24T03:28:46.446Z,74.61
2024-02-24T03:29:18.659Z,74.42
2024-02-24T03:29:50.910Z,74.51
2024-02-24T03:30:25.738Z,74.35
2024-02-24T03:30:58.146Z,74.55
2024-02-24T03:31:31.387Z,74.54
2024-02-24T03:32:04.631Z,74.18
2024-02-24T03:32:39.456Z,74.11
2024-02-24T03:33:13.938Z,74.09
2024-02-24T03:33:46.425Z,74.14
2024-02-24T03:34:18.753Z,74.02
2024-02-24T03:34:53.590Z,74.41
2024-02-24T03:35:25.885Z,74.53
2024-02-24T03:35:58.312Z,74.53
2024-02-24T03:36:30.685Z,74.61
2024-02-24T03:37:05.588Z,74.47
2024-02-24T03:37:37.886Z,74.49
2024-02-24T03:38:10.251Z,74.45
2024-02-24T03:38:45.447Z,74.34
2024-02-24T03:39:23.042Z,74.54
2024-02-24T03:39:55.417Z,74.56
2024-02-24T03:40:27.647Z,74.57
2024-02-24T03:40:59.861Z,74.48
2024-02-24T03:41:35.381Z,74.54
2024-02-24T03:42:07.771Z,74.68
2024-02-24T03:42:40.041Z,74.24
2024-02-24T03:43:12.491Z,74.03
2024-02-24T03:43:47.299Z,74.54
2024-02-24T03:44:21.761Z,74.03
2024-02-24T03:44:54.200Z,74.16
2024-02-24T03:45:29.147Z,74.18
2024-02-24T03:46:03.687Z,74.30
2024-02-24T03:46:35.984Z,74.31
2024-02-24T03:47:10.890Z,74.33
2024-02-24T03:47:43.949Z,74.07
2024-02-24T03:48:17.177Z,74.46
2024-02-24T03:48:52.439Z,74.93
2024-02-24T03:49:25.057Z,74.65
2024-02-24T03:49:57.348Z,74.20
2024-02-24T03:50:29.806Z,74.61
2024-02-24T03:51:04.718Z,74.50
2024-02-24T03:51:36.998Z,74.39
2024-02-24T03:52:10.685Z,74.24
2024-02-24T03:52:42.909Z,74.70
2024-02-24T03:53:19.960Z,74.66
2024-02-24T03:53:54.893Z,74.59
2024-02-24T03:54:27.361Z,74.31
2024-02-24T03:54:59.676Z,74.45
2024-02-24T03:55:34.503Z,74.31
2024-02-24T03:56:07.408Z,74.43
2024-02-24T03:56:39.824Z,74.40
2024-02-24T03:57:12.052Z,74.41
2024-02-24T03:57:46.921Z,74.10
2024-02-24T03:58:19.861Z,73.98
2024-02-24T03:58:52.088Z,74.26
2024-02-24T03:59:24.301Z,73.94
2024-02-24T04:00:00.917Z,74.50
2024-02-24T04:00:36.568Z,74.41
2024-02-24T04:01:09.413Z,74.56
2024-02-24T04:01:42.219Z,74.25
2024-02-24T04:02:17.140Z,74.10
2024-02-24T04:02:49.464Z,74.09
2024-02-24T04:03:22.463Z,74.05
2024-02-24T04:03:55.480Z,74.31
2024-02-24T04:04:30.355Z,74.46
2024-02-24T04:05:03.904Z,74.30
2024-02-24T04:05:36.202Z,73.89
2024-02-24T04:06:09.500Z,74.09
2024-02-24T04:06:48.963Z,74.16
2024-02-24T04:07:21.293Z,73.92
2024-02-24T04:07:56.632Z,73.84
2024-02-24T04:08:28.962Z,73.90
2024-02-24T04:09:09.992Z,74.20
2024-02-24T04:09:42.245Z,73.93
2024-02-24T04:10:14.604Z,73.86
2024-02-24T04:10:46.909Z,73.57
2024-02-24T04:11:21.888Z,74.05
2024-02-24T04:11:54.362Z,73.77
2024-02-24T04:12:26.763Z,74.00
2024-02-24T04:12:59.149Z,74.10
2024-02-24T04:13:36.691Z,73.74
2024-02-24T04:14:11.317Z,73.98
2024-02-24T04:14:43.956Z,73.70
2024-02-24T04:15:23.337Z,73.67
2024-02-24T04:15:55.669Z,73.60
2024-02-24T04:16:27.904Z,73.60
2024-02-24T04:17:00.249Z,73.51
2024-02-24T04:17:35.249Z,73.80
2024-02-24T04:18:08.186Z,73.50
2024-02-24T04:18:43.388Z,73.68
2024-02-24T04:19:15.658Z,73.98
2024-02-24T04:19:50.715Z,73.79
2024-02-24T04:20:25.608Z,73.89
2024-02-24T04:20:58.017Z,73.33
2024-02-24T04:21:32.898Z,73.69
2024-02-24T04:22:05.434Z,73.72
2024-02-24T04:22:37.780Z,73.79
2024-02-24T04:23:10.122Z,73.49
2024-02-24T04:23:45.027Z,73.64
2024-02-24T04:24:20.461Z,73.70
2024-02-24T04:24:53.229Z,73.83
2024-02-24T04:25:25.528Z,73.44
2024-02-24T04:26:00.330Z,73.71
2024-02-24T04:26:32.576Z,73.92
2024-02-24T04:27:05.238Z,73.75
2024-02-24T04:27:37.646Z,73.64
2024-02-24T04:28:13.756Z,73.77
2024-02-24T04:28:46.023Z,73.80
2024-02-24T04:29:18.198Z,73.46
2024-02-24T04:29:50.583Z,73.86
2024-02-24T04:30:25.498Z,73.56
2024-02-24T04:30:57.771Z,73.81
2024-02-24T04:31:31.185Z,73.75
2024-02-24T04:32:06.343Z,74.23
2024-02-24T04:32:38.706Z,74.19
2024-02-24T04:33:11.084Z,73.74
2024-02-24T04:33:43.456Z,74.07
2024-02-24T04:34:18.479Z,73.84
2024-02-24T04:34:50.787Z,73.44
2024-02-24T04:35:23.338Z,73.61
2024-02-24T04:35:58.285Z,73.47
2024-02-24T04:36:33.149Z,73.73
2024-02-24T04:37:08.821Z,73.43
2024-02-24T04:37:44.913Z,73.29
2024-02-24T04:38:23.133Z,73.22
2024-02-24T04:38:55.449Z,73.34
2024-02-24T04:39:30.272Z,73.52
2024-02-24T04:40:02.528Z,73.64
2024-02-24T04:40:38.029Z,73.30
2024-02-24T04:41:10.389Z,73.14
2024-02-24T04:41:42.733Z,73.48
2024-02-24T04:42:15.509Z,73.69
2024-02-24T04:42:50.422Z,73.71
2024-02-24T04:43:22.721Z,73.59
2024-02-24T04:43:55.513Z,73.97
2024-02-24T04:44:27.987Z,73.50
2024-02-24T04:45:03.083Z,73.39
2024-02-24T04:45:36.777Z,73.68
2024-02-24T04:46:09.138Z,73.30
2024-02-24T04:46:42.101Z,73.61
2024-02-24T04:47:17.008Z,73.31
2024-02-24T04:47:49.905Z,73.67
2024-02-24T04:48:22.477Z,73.11
2024-02-24T04:48:57.811Z,73.40
2024-02-24T04:49:31.589Z,73.11
2024-02-24T04:50:04.185Z,73.16
2024-02-24T04:50:36.553Z,73.20
2024-02-24T04:51:11.405Z,73.04
2024-02-24T04:51:43.852Z,73.41
2024-02-24T04:52:16.147Z,73.55
2024-02-24T04:52:51.270Z,73.81
2024-02-24T04:53:26.169Z,73.94
2024-02-24T04:54:00.607Z,73.43
2024-02-24T04:54:35.444Z,73.92
2024-02-24T04:55:08.543Z,73.54
2024-02-24T04:55:43.386Z,73.84
2024-02-24T04:56:18.160Z,73.76
2024-02-24T04:56:50.370Z,73.36
2024-02-24T04:57:22.885Z,73.27
2024-02-24T04:57:57.651Z,73.36
2024-02-24T04:58:29.846Z,73.20
2024-02-24T04:59:02.079Z,73.38
2024-02-24T04:59:34.354Z,73.08
2024-02-24T05:00:12.729Z,72.89
2024-02-24T05:00:44.993Z,73.24
2024-02-24T05:01:17.721Z,72.96
2024-02-24T05:01:50.223Z,73.09
2024-02-24T05:02:25.640Z,73.39
2024-02-24T05:02:57.889Z,73.34
2024-02-24T05:03:30.080Z,72.98
2024-02-24T05:04:02.324Z,73.15
2024-02-24T05:04:37.216Z,72.95
2024-02-24T05:05:12.765Z,72.84
2024-02-24T05:05:45.778Z,73.16
2024-02-24T05:06:18.080Z,72.90
2024-02-24T05:06:53.155Z,73.03
2024-02-24T05:07:25.538Z,73.14
2024-02-24T05:07:57.848Z,72.85
2024-02-24T05:08:34.699Z,72.98
2024-02-24T05:09:09.958Z,72.92
2024-02-24T05:09:44.941Z,73.05
2024-02-24T05:10:17.476Z,73.28
2024-02-24T05:10:52.698Z,73.48
2024-02-24T05:11:25.983Z,73.27
2024-02-24T05:11:58.288Z,73.64
2024-02-24T05:12:30.496Z,73.47
2024-02-24T05:13:06.465Z,73.07
2024-02-24T05:13:38.893Z,72.61
2024-02-24T05:14:11.176Z,72.68
2024-02-24T05:14:43.785Z,72.96
2024-02-24T05:15:20.561Z,72.77
2024-02-24T05:15:53.227Z,72.53
2024-02-24T05:16:25.649Z,72.44
2024-02-24T05:16:58.540Z,72.49
2024-02-24T05:17:31.357Z,72.70
2024-02-24T05:18:06.826Z,72.46
2024-02-24T05:18:40.118Z,72.71
2024-02-24T05:19:12.769Z,72.71
2024-02-24T05:19:45.060Z,72.66
2024-02-24T05:20:20.363Z,72.45
2024-02-24T05:20:52.692Z,72.86
2024-02-24T05:21:24.949Z,72.52
2024-02-24T05:21:57.416Z,72.48
2024-02-24T05:22:34.338Z,72.28
2024-02-24T05:23:06.710Z,72.93
2024-02-24T05:23:39.043Z,72.57
2024-02-24T05:24:11.458Z,72.48
2024-02-24T05:24:49.692Z,72.93
2024-02-24T05:25:21.950Z,72.80
2024-02-24T05:25:54.588Z,72.47
2024-02-24T05:26:27.706Z,72.44
2024-02-24T05:27:02.989Z,72.89
2024-02-24T05:27:35.991Z,72.97
2024-02-24T05:28:08.345Z,72.83
2024-02-24T05:28:40.651Z,72.57
2024-02-24T05:29:15.867Z,72.26
2024-02-24T05:29:48.615Z,72.20
2024-02-24T05:30:21.637Z,72.21
2024-02-24T05:30:54.406Z,72.89
2024-02-24T05:31:29.232Z,72.65
2024-02-24T05:32:04.214Z,72.62
2024-02-24T05:32:36.725Z,72.50
2024-02-24T05:33:12.305Z,72.84
2024-02-24T05:33:44.802Z,72.83
2024-02-24T05:34:17.285Z,72.30
2024-02-24T05:34:49.777Z,72.51
2024-02-24T05:35:22.066Z,72.41
2024-02-24T05:35:56.936Z,72.07
2024-02-24T05:36:29.235Z,71.97
2024-02-24T05:37:03.580Z,72.38
2024-02-24T05:37:38.420Z,72.46
2024-02-24T05:38:10.925Z,72.03
2024-02-24T05:38:43.499Z,72.39
2024-02-24T05:39:15.863Z,72.18
2024-02-24T05:39:53.736Z,71.92
2024-02-24T05:40:25.968Z,72.07
2024-02-24T05:40:58.304Z,72.29
2024-02-24T05:41:33.120Z,72.48
2024-02-24T05:42:09.373Z,71.88
2024-02-24T05:42:42.981Z,71.93
2024-02-24T05:43:15.231Z,71.84
2024-02-24T05:43:47.579Z,71.86
2024-02-24T05:44:22.470Z,71.87
2024-02-24T05:44:55.011Z,71.84
2024-02-24T05:45:27.228Z,71.99
2024-02-24T05:46:02.796Z,72.12
2024-02-24T05:46:38.144Z,72.14
2024-02-24T05:47:10.506Z,71.77
2024-02-24T05:47:42.851Z,71.64
2024-02-24T05:48:15.292Z,71.67
2024-02-24T05:48:50.329Z,72.04
2024-02-24T05:49:22.658Z,71.72
2024-02-24T05:49:56.430Z,71.69
2024-02-24T05:50:28.779Z,71.50
2024-02-24T05:51:03.594Z,71.86
2024-02-24T05:51:36.042Z,71.73
2024-02-24T05:52:08.389Z,71.67
2024-02-24T05:52:40.791Z,71.40
2024-02-24T05:53:15.642Z,71.82
2024-02-24T05:53:47.901Z,71.62
2024-02-24T05:54:20.085Z,71.57
2024-02-24T05:54:54.895Z,71.44
2024-02-24T05:55:29.902Z,71.69
2024-02-24T05:56:02.160Z,71.72
2024-02-24T05:56:34.670Z,71.54
2024-02-24T05:57:07.112Z,71.81
2024-02-24T05:57:41.978Z,71.23
2024-02-24T05:58:14.252Z,71.26
2024-02-24T05:58:46.865Z,71.53
2024-02-24T05:59:19.271Z,71.51
2024-02-24T05:59:54.543Z,71.62
2024-02-24T06:00:26.924Z,71.41
2024-02-24T06:00:59.227Z,71.74
2024-02-24T06:01:31.509Z,71.38
2024-02-24T06:02:06.661Z,71.56
2024-02-24T06:02:39.040Z,71.24
2024-02-24T06:03:14.054Z,71.44
2024-02-24T06:03:46.315Z,71.31
2024-02-24T06:04:22.404Z,71.25
2024-02-24T06:04:54.586Z,71.38
2024-02-24T06:05:26.914Z,71.15
2024-02-24T06:06:01.876Z,70.73
2024-02-24T06:06:34.271Z,70.89
2024-02-24T06:07:06.605Z,70.93
2024-02-24T06:07:42.149Z,70.84
2024-02-24T06:08:14.492Z,71.10
2024-02-24T06:08:46.939Z,70.87
2024-02-24T06:09:21.832Z,70.61
2024-02-24T06:09:56.673Z,70.75
2024-02-24T06:10:28.930Z,71.09
2024-02-24T06:11:03.849Z,70.59
2024-02-24T06:11:36.301Z,70.51
2024-02-24T06:12:10.269Z,71.09
2024-02-24T06:12:45.213Z,71.01
2024-02-24T06:13:17.972Z,70.73
2024-02-24T06:13:54.009Z,70.98
2024-02-24T06:14:26.460Z,71.19
2024-02-24T06:15:02.409Z,70.90
2024-02-24T06:15:34.664Z,70.89
2024-02-24T06:16:08.509Z,70.80
2024-02-24T06:16:43.407Z,70.97
2024-02-24T06:17:15.796Z,71.15
2024-02-24T06:17:50.660Z,70.95
2024-02-24T06:18:25.158Z,70.86
2024-02-24T06:19:03.211Z,70.46
2024-02-24T06:19:35.615Z,70.75
2024-02-24T06:20:09.437Z,70.99
2024-02-24T06:20:41.786Z,70.65
2024-02-24T06:21:16.630Z,70.63
2024-02-24T06:21:49.001Z,70.33
2024-02-24T06:22:21.477Z,70.39
2024-02-24T06:22:54.285Z,70.52
2024-02-24T06:23:29.101Z,70.59
2024-02-24T06:24:01.470Z,70.96
2024-02-24T06:24:33.719Z,70.37
2024-02-24T06:25:09.181Z,70.50
2024-02-24T06:25:44.161Z,70.74
2024-02-24T06:26:16.527Z,70.39
2024-02-24T06:26:48.830Z,70.22
2024-02-24T06:27:24.121Z,70.31
2024-02-24T06:27:56.346Z,70.53
2024-02-24T06:28:28.592Z,70.15
2024-02-24T06:29:00.878Z,70.14
2024-02-24T06:29:35.765Z,70.23
2024-02-24T06:30:09.259Z,70.16
2024-02-24T06:30:41.696Z,70.38
2024-02-24T06:31:18.068Z,70.49
2024-02-24T06:31:50.452Z,70.31
2024-02-24T06:32:28.801Z,70.46
2024-02-24T06:33:01.415Z,70.51
2024-02-24T06:33:36.646Z,70.34
2024-02-24T06:34:09.319Z,70.26
2024-02-24T06:34:47.826Z,70.16
2024-02-24T06:35:20.418Z,70.09
2024-02-24T06:35:55.381Z,70.06
2024-02-24T06:36:28.367Z,70.02
2024-02-24T06:37:00.557Z,70.20
2024-02-24T06:37:35.795Z,70.03
2024-02-24T06:38:10.268Z,69.91
2024-02-24T06:38:43.064Z,70.19
2024-02-24T06:39:18.044Z,69.69
2024-02-24T06:39:52.212Z,69.82
2024-02-24T06:40:33.488Z,69.82
2024-02-24T06:41:25.387Z,69.80
2024-02-24T06:42:00.824Z,70.26
2024-02-24T06:42:37.337Z,69.68
2024-02-24T06:43:09.585Z,69.51
2024-02-24T06:43:44.542Z,69.61
2024-02-24T06:44:27.198Z,69.69
2024-02-24T06:45:01.355Z,69.68
2024-02-24T06:45:36.211Z,69.86
2024-02-24T06:46:11.079Z,69.83
2024-02-24T06:46:46.264Z,69.83
2024-02-24T06:47:28.385Z,69.53
2024-02-24T06:48:05.673Z,69.77
2024-02-24T06:48:38.278Z,70.07
2024-02-24T06:49:10.959Z,70.02
2024-02-24T06:49:46.861Z,69.70
2024-02-24T06:50:21.763Z,69.94
2024-02-24T06:50:54.264Z,70.29
2024-02-24T06:51:29.892Z,69.67
2024-02-24T06:52:08.933Z,70.05
2024-02-24T06:52:44.116Z,69.71
2024-02-24T06:53:16.693Z,69.83
2024-02-24T06:53:51.726Z,69.50
2024-02-24T06:54:25.835Z,69.99
2024-02-24T06:54:58.442Z,69.74
2024-02-24T06:55:33.246Z,69.93
2024-02-24T06:56:12.670Z,70.13
2024-02-24T06:56:44.955Z,69.90
2024-02-24T06:57:20.234Z,69.60
2024-02-24T06:57:52.529Z,69.45
2024-02-24T06:58:27.605Z,69.75
2024-02-24T06:59:01.904Z,69.71
2024-02-24T06:59:34.216Z,69.79
2024-02-24T07:00:09.352Z,69.90
2024-02-24T07:00:44.288Z,69.69
2024-02-24T07:01:22.083Z,69.33
2024-02-24T07:01:56.173Z,69.41
2024-02-24T07:02:34.095Z,69.67
2024-02-24T07:03:06.597Z,69.69
2024-02-24T07:03:39.111Z,69.75
2024-02-24T07:04:14.154Z,69.25
2024-02-24T07:05:00.068Z,69.28
2024-02-24T07:05:33.366Z,69.64
2024-02-24T07:06:09.021Z,69.78
2024-02-24T07:06:46.716Z,69.86
2024-02-24T07:07:22.105Z,69.58
2024-02-24T07:07:59.464Z,69.35
2024-02-24T07:08:32.309Z,69.51
2024-02-24T07:09:07.133Z,69.30
2024-02-24T07:09:45.400Z,69.36
2024-02-24T07:10:21.659Z,69.29
2024-02-24T07:10:56.788Z,69.50
2024-02-24T07:11:36.198Z,69.23
2024-02-24T07:12:11.206Z,68.85
2024-02-24T07:12:50.060Z,69.26
2024-02-24T07:13:31.382Z,69.30
2024-02-24T07:14:04.044Z,68.90
2024-02-24T07:14:41.685Z,69.34
2024-02-24T07:15:16.629Z,68.80
2024-02-24T07:15:49.189Z,69.14